Hovedside
METAR-TAF:

METAR-TAF

Lufthavner :

Kairo, Egypt

breddegrad: 30-08N, lengdegrad: 031-24E, høyde over havet: 64 m

Gjeldene værobservasjon

Denne rapporten ble laget for 23 minutter siden, klokken 09:30 UTC
Vind 16 kt fra Nord-nordøst
Temperatur 31°C
Luftfuktighet 49%
Trykk 1010 hPa
Sikt 10 km eller mer
ingen skyer under 1500 m og ingen bygeskyer

METAR: HECA 200930Z 03016KT CAVOK 31/19 Q1010 NOSIG

Tid: 11:53 (09:53 UTC)

Varsel

Denne rapporten ble laget for 4 timer og 53 minutter siden, klokken 05:00 UTC
Varsel gyldig fra 20. klokken 06 UTC til 21. klokken 12 UTC
Vind 12 kt fra Nordøst
Sikt 10 km eller mer
Spredte skyer i en høyde av 2500 ft

TAF: HECA 200500Z 2006/2112 04012KT 9999 SCT025

Værobservasjoner og værvarsel for over 4000 flyplasser (METAR- og TAF-rapporter).

Tilgjengelige stasjoner er representert av de røde og gule prikkene på kartet.

Hold musepekeren over prikken for å se navnet på stasjonen.

Klikk så for å se værobservasjoner og -varsler.

For å forandre kartet kan du klikke på den grønne knappen med svart kryss for å zoome inn, på den grønne knappen med strek for å zoome ut, eller på de grønne pilene for å se tilstøtende kart.


METAR-TAF: